sensor_id;sensor_type;location;lat;lon;timestamp;pressure;altitude;pressure_sealevel;temperature;humidity
8573;BME280;4324;42.012;24.872;2023-03-13T00:00:01;99239.34;;;8.03;57.41
8573;BME280;4324;42.012;24.872;2023-03-13T00:02:30;99241.59;;;7.98;57.32
8573;BME280;4324;42.012;24.872;2023-03-13T00:04:57;99239.91;;;7.97;57.24
8573;BME280;4324;42.012;24.872;2023-03-13T00:07:24;99235.78;;;7.94;57.64
8573;BME280;4324;42.012;24.872;2023-03-13T00:09:53;99238.16;;;7.88;57.34
8573;BME280;4324;42.012;24.872;2023-03-13T00:12:19;99245.25;;;7.87;57.88
8573;BME280;4324;42.012;24.872;2023-03-13T00:14:46;99251.06;;;7.81;57.97
8573;BME280;4324;42.012;24.872;2023-03-13T00:17:13;99247.50;;;7.72;57.45
8573;BME280;4324;42.012;24.872;2023-03-13T00:19:41;99254.97;;;7.67;57.69
8573;BME280;4324;42.012;24.872;2023-03-13T00:22:08;99256.53;;;7.60;57.90
8573;BME280;4324;42.012;24.872;2023-03-13T00:24:35;99246.66;;;7.52;58.01
8573;BME280;4324;42.012;24.872;2023-03-13T00:27:03;99253.06;;;7.50;58.14
8573;BME280;4324;42.012;24.872;2023-03-13T00:29:32;99254.72;;;7.41;58.44
8573;BME280;4324;42.012;24.872;2023-03-13T00:31:59;99256.13;;;7.36;58.47
8573;BME280;4324;42.012;24.872;2023-03-13T00:34:27;99253.38;;;7.27;58.50
8573;BME280;4324;42.012;24.872;2023-03-13T00:36:53;99245.03;;;7.22;58.10
8573;BME280;4324;42.012;24.872;2023-03-13T00:39:21;99246.97;;;7.20;58.50
8573;BME280;4324;42.012;24.872;2023-03-13T00:41:48;99245.72;;;7.15;58.70
8573;BME280;4324;42.012;24.872;2023-03-13T00:44:16;99248.06;;;7.08;58.77
8573;BME280;4324;42.012;24.872;2023-03-13T00:46:43;99236.44;;;7.01;59.04
8573;BME280;4324;42.012;24.872;2023-03-13T00:49:10;99235.88;;;6.97;58.62
8573;BME280;4324;42.012;24.872;2023-03-13T00:51:37;99250.84;;;6.97;58.41
8573;BME280;4324;42.012;24.872;2023-03-13T00:54:04;99243.09;;;6.95;59.10
8573;BME280;4324;42.012;24.872;2023-03-13T00:56:31;99245.88;;;6.94;59.48
8573;BME280;4324;42.012;24.872;2023-03-13T00:58:58;99216.44;;;6.69;59.41
8573;BME280;4324;42.012;24.872;2023-03-13T01:01:28;99241.41;;;6.85;59.47
8573;BME280;4324;42.012;24.872;2023-03-13T01:03:57;99243.34;;;6.83;59.21
8573;BME280;4324;42.012;24.872;2023-03-13T01:06:27;99254.16;;;6.79;58.83
8573;BME280;4324;42.012;24.872;2023-03-13T01:08:55;99246.25;;;6.79;58.75
8573;BME280;4324;42.012;24.872;2023-03-13T01:11:23;99224.19;;;6.61;59.27
8573;BME280;4324;42.012;24.872;2023-03-13T01:13:53;99243.47;;;6.71;59.29
8573;BME280;4324;42.012;24.872;2023-03-13T01:16:20;99254.69;;;6.73;59.54
8573;BME280;4324;42.012;24.872;2023-03-13T01:18:51;99252.56;;;6.67;59.99
8573;BME280;4324;42.012;24.872;2023-03-13T01:21:18;99248.44;;;6.65;59.64
8573;BME280;4324;42.012;24.872;2023-03-13T01:23:47;99231.94;;;6.53;59.49
8573;BME280;4324;42.012;24.872;2023-03-13T01:26:15;99242.16;;;6.56;59.44
8573;BME280;4324;42.012;24.872;2023-03-13T01:28:42;99237.47;;;6.50;59.60
8573;BME280;4324;42.012;24.872;2023-03-13T01:31:11;99238.84;;;6.54;59.35
8573;BME280;4324;42.012;24.872;2023-03-13T01:33:38;99244.94;;;6.54;59.28
8573;BME280;4324;42.012;24.872;2023-03-13T01:36:07;99254.91;;;6.51;59.53
8573;BME280;4324;42.012;24.872;2023-03-13T01:38:35;99253.50;;;6.47;59.49
8573;BME280;4324;42.012;24.872;2023-03-13T01:41:03;99251.28;;;6.42;59.55
8573;BME280;4324;42.012;24.872;2023-03-13T01:43:32;99231.44;;;6.28;59.90
8573;BME280;4324;42.012;24.872;2023-03-13T01:46:04;99254.03;;;6.41;60.01
8573;BME280;4324;42.012;24.872;2023-03-13T01:48:36;99250.97;;;6.36;59.89
8573;BME280;4324;42.012;24.872;2023-03-13T01:51:09;99263.97;;;6.37;60.38
8573;BME280;4324;42.012;24.872;2023-03-13T01:53:41;99262.31;;;6.36;60.35
8573;BME280;4324;42.012;24.872;2023-03-13T01:56:13;99267.00;;;6.33;60.62
8573;BME280;4324;42.012;24.872;2023-03-13T01:58:43;99270.72;;;6.30;61.23
8573;BME280;4324;42.012;24.872;2023-03-13T02:01:10;99270.81;;;6.19;61.06
8573;BME280;4324;42.012;24.872;2023-03-13T02:03:38;99280.81;;;6.25;61.02
8573;BME280;4324;42.012;24.872;2023-03-13T02:06:08;99269.31;;;6.16;60.83
8573;BME280;4324;42.012;24.872;2023-03-13T02:08:38;99282.19;;;6.19;60.95
8573;BME280;4324;42.012;24.872;2023-03-13T02:11:15;99275.78;;;6.12;60.38
8573;BME280;4324;42.012;24.872;2023-03-13T02:13:45;99292.97;;;6.16;60.30
8573;BME280;4324;42.012;24.872;2023-03-13T02:16:12;99290.47;;;6.15;60.39
8573;BME280;4324;42.012;24.872;2023-03-13T02:18:39;99296.53;;;6.15;60.57
8573;BME280;4324;42.012;24.872;2023-03-13T02:23:58;99302.34;;;6.09;60.84
8573;BME280;4324;42.012;24.872;2023-03-13T02:26:28;99310.91;;;6.11;60.64
8573;BME280;4324;42.012;24.872;2023-03-13T02:28:55;99311.16;;;6.08;60.47
8573;BME280;4324;42.012;24.872;2023-03-13T02:31:22;99314.91;;;6.05;60.09
8573;BME280;4324;42.012;24.872;2023-03-13T02:33:49;99316.72;;;6.05;60.07
8573;BME280;4324;42.012;24.872;2023-03-13T02:36:17;99322.91;;;6.04;60.12
8573;BME280;4324;42.012;24.872;2023-03-13T02:38:48;99317.22;;;5.99;60.07
8573;BME280;4324;42.012;24.872;2023-03-13T02:41:18;99318.66;;;5.92;60.45
8573;BME280;4324;42.012;24.872;2023-03-13T02:43:47;99328.25;;;5.93;60.49
8573;BME280;4324;42.012;24.872;2023-03-13T02:46:17;99338.84;;;5.91;60.20
8573;BME280;4324;42.012;24.872;2023-03-13T02:48:46;99334.25;;;5.83;60.08
8573;BME280;4324;42.012;24.872;2023-03-13T02:51:19;99325.34;;;5.75;60.34
8573;BME280;4324;42.012;24.872;2023-03-13T02:53:50;99340.56;;;5.81;60.45
8573;BME280;4324;42.012;24.872;2023-03-13T02:56:20;99353.84;;;5.79;60.59
8573;BME280;4324;42.012;24.872;2023-03-13T02:58:49;99362.72;;;5.78;60.77
8573;BME280;4324;42.012;24.872;2023-03-13T03:01:16;99364.75;;;5.75;60.87
8573;BME280;4324;42.012;24.872;2023-03-13T03:03:43;99338.19;;;5.57;60.74
8573;BME280;4324;42.012;24.872;2023-03-13T03:06:10;99377.03;;;5.74;61.13
8573;BME280;4324;42.012;24.872;2023-03-13T03:08:37;99383.25;;;5.73;61.62
8573;BME280;4324;42.012;24.872;2023-03-13T03:11:06;99375.13;;;5.76;61.74
8573;BME280;4324;42.012;24.872;2023-03-13T03:13:33;99380.28;;;5.67;62.18
8573;BME280;4324;42.012;24.872;2023-03-13T03:16:06;99386.38;;;5.67;61.97
8573;BME280;4324;42.012;24.872;2023-03-13T03:18:33;99389.13;;;5.66;62.36
8573;BME280;4324;42.012;24.872;2023-03-13T03:21:00;99383.09;;;5.54;61.93
8573;BME280;4324;42.012;24.872;2023-03-13T03:23:31;99375.94;;;5.45;62.31
8573;BME280;4324;42.012;24.872;2023-03-13T03:25:58;99406.25;;;5.60;62.42
8573;BME280;4324;42.012;24.872;2023-03-13T03:28:25;99403.53;;;5.50;62.64
8573;BME280;4324;42.012;24.872;2023-03-13T03:30:52;99410.56;;;5.50;63.08
8573;BME280;4324;42.012;24.872;2023-03-13T03:33:20;99416.06;;;5.47;63.71
8573;BME280;4324;42.012;24.872;2023-03-13T03:35:48;99425.84;;;5.45;64.06
8573;BME280;4324;42.012;24.872;2023-03-13T03:38:15;99419.41;;;5.38;63.78
8573;BME280;4324;42.012;24.872;2023-03-13T03:40:42;99431.47;;;5.40;63.50
8573;BME280;4324;42.012;24.872;2023-03-13T03:43:09;99420.13;;;5.40;63.11
8573;BME280;4324;42.012;24.872;2023-03-13T03:45:36;99427.78;;;5.43;63.34
8573;BME280;4324;42.012;24.872;2023-03-13T03:48:03;99398.69;;;5.23;63.42
8573;BME280;4324;42.012;24.872;2023-03-13T03:50:32;99430.66;;;5.40;63.67
8573;BME280;4324;42.012;24.872;2023-03-13T03:52:58;99432.53;;;5.38;64.19
8573;BME280;4324;42.012;24.872;2023-03-13T03:55:25;99386.66;;;5.09;64.07
8573;BME280;4324;42.012;24.872;2023-03-13T03:57:52;99437.72;;;5.28;63.80
8573;BME280;4324;42.012;24.872;2023-03-13T04:00:19;99428.88;;;5.29;63.34
8573;BME280;4324;42.012;24.872;2023-03-13T04:02:46;99442.81;;;5.41;63.92
8573;BME280;4324;42.012;24.872;2023-03-13T04:05:14;99439.72;;;5.36;64.11
8573;BME280;4324;42.012;24.872;2023-03-13T04:07:42;99440.41;;;5.38;64.28
8573;BME280;4324;42.012;24.872;2023-03-13T04:10:10;99438.06;;;5.34;64.15
8573;BME280;4324;42.012;24.872;2023-03-13T04:12:37;99428.28;;;5.25;64.26
8573;BME280;4324;42.012;24.872;2023-03-13T04:15:04;99439.63;;;5.26;63.78
8573;BME280;4324;42.012;24.872;2023-03-13T04:17:32;99390.00;;;4.89;63.62
8573;BME280;4324;42.012;24.872;2023-03-13T04:19:59;99455.13;;;5.29;64.28
8573;BME280;4324;42.012;24.872;2023-03-13T04:22:26;99458.47;;;5.31;64.35
8573;BME280;4324;42.012;24.872;2023-03-13T04:24:54;99444.28;;;5.22;64.18
8573;BME280;4324;42.012;24.872;2023-03-13T04:27:21;99464.06;;;5.26;64.13
8573;BME280;4324;42.012;24.872;2023-03-13T04:29:48;99461.72;;;5.23;64.65
8573;BME280;4324;42.012;24.872;2023-03-13T04:32:15;99467.19;;;5.20;65.11
8573;BME280;4324;42.012;24.872;2023-03-13T04:34:42;99476.03;;;5.19;65.11
8573;BME280;4324;42.012;24.872;2023-03-13T04:37:09;99489.88;;;5.21;65.26
8573;BME280;4324;42.012;24.872;2023-03-13T04:39:35;99488.44;;;5.17;65.93
8573;BME280;4324;42.012;24.872;2023-03-13T04:42:04;99497.97;;;5.18;65.50
8573;BME280;4324;42.012;24.872;2023-03-13T04:44:31;99491.19;;;5.16;65.55
8573;BME280;4324;42.012;24.872;2023-03-13T04:46:58;99504.31;;;5.16;64.90
8573;BME280;4324;42.012;24.872;2023-03-13T04:49:25;99499.41;;;5.11;65.86
8573;BME280;4324;42.012;24.872;2023-03-13T04:51:52;99502.75;;;5.13;66.50
8573;BME280;4324;42.012;24.872;2023-03-13T04:54:19;99511.59;;;5.12;66.24
8573;BME280;4324;42.012;24.872;2023-03-13T04:56:46;99509.66;;;5.14;66.16
8573;BME280;4324;42.012;24.872;2023-03-13T04:59:15;99518.03;;;5.19;66.74
8573;BME280;4324;42.012;24.872;2023-03-13T05:01:42;99515.28;;;5.21;67.46
8573;BME280;4324;42.012;24.872;2023-03-13T05:04:09;99507.78;;;5.16;67.28
8573;BME280;4324;42.012;24.872;2023-03-13T05:06:37;99529.25;;;5.32;68.54
8573;BME280;4324;42.012;24.872;2023-03-13T05:09:04;99519.47;;;5.34;69.45
8573;BME280;4324;42.012;24.872;2023-03-13T05:12:04;99504.06;;;5.30;70.33
8573;BME280;4324;42.012;24.872;2023-03-13T05:14:35;99519.34;;;5.47;70.44
8573;BME280;4324;42.012;24.872;2023-03-13T05:17:07;99541.31;;;5.57;71.48
8573;BME280;4324;42.012;24.872;2023-03-13T05:19:49;99531.75;;;5.56;71.88
8573;BME280;4324;42.012;24.872;2023-03-13T05:22:20;99515.03;;;5.46;72.17
8573;BME280;4324;42.012;24.872;2023-03-13T05:24:47;99536.75;;;5.59;71.75
8573;BME280;4324;42.012;24.872;2023-03-13T05:27:14;99543.44;;;5.64;70.91
8573;BME280;4324;42.012;24.872;2023-03-13T05:29:43;99533.63;;;5.66;70.40
8573;BME280;4324;42.012;24.872;2023-03-13T05:32:09;99534.97;;;5.71;70.22
8573;BME280;4324;42.012;24.872;2023-03-13T05:34:36;99549.28;;;5.78;70.18
8573;BME280;4324;42.012;24.872;2023-03-13T05:37:03;99546.38;;;5.81;69.29
8573;BME280;4324;42.012;24.872;2023-03-13T05:39:30;99534.69;;;5.74;69.40
8573;BME280;4324;42.012;24.872;2023-03-13T05:41:57;99559.19;;;5.86;68.52
8573;BME280;4324;42.012;24.872;2023-03-13T05:44:24;99549.75;;;5.83;67.65
8573;BME280;4324;42.012;24.872;2023-03-13T05:46:52;99550.34;;;5.87;67.50
8573;BME280;4324;42.012;24.872;2023-03-13T05:49:20;99557.41;;;5.98;66.92
8573;BME280;4324;42.012;24.872;2023-03-13T05:51:48;99550.72;;;5.94;67.42
8573;BME280;4324;42.012;24.872;2023-03-13T05:54:14;99567.88;;;6.09;67.54
8573;BME280;4324;42.012;24.872;2023-03-13T05:56:45;99528.72;;;5.95;67.33
8573;BME280;4324;42.012;24.872;2023-03-13T05:59:19;99577.66;;;6.18;66.85
8573;BME280;4324;42.012;24.872;2023-03-13T06:01:46;99574.78;;;6.21;66.92
8573;BME280;4324;42.012;24.872;2023-03-13T06:04:14;99577.59;;;6.29;67.74
8573;BME280;4324;42.012;24.872;2023-03-13T06:06:41;99571.84;;;6.36;69.36
8573;BME280;4324;42.012;24.872;2023-03-13T06:09:08;99592.66;;;6.39;68.85
8573;BME280;4324;42.012;24.872;2023-03-13T06:11:36;99572.72;;;6.25;68.70
8573;BME280;4324;42.012;24.872;2023-03-13T06:14:04;99583.38;;;6.23;68.36
8573;BME280;4324;42.012;24.872;2023-03-13T06:16:31;99589.13;;;6.17;67.87
8573;BME280;4324;42.012;24.872;2023-03-13T06:18:58;99596.06;;;6.18;68.59
8573;BME280;4324;42.012;24.872;2023-03-13T06:21:28;99601.19;;;6.31;70.08
8573;BME280;4324;42.012;24.872;2023-03-13T06:23:55;99554.00;;;6.07;69.86
8573;BME280;4324;42.012;24.872;2023-03-13T06:26:23;99596.94;;;6.40;70.16
8573;BME280;4324;42.012;24.872;2023-03-13T06:28:50;99598.63;;;6.41;69.20
8573;BME280;4324;42.012;24.872;2023-03-13T06:31:18;99612.94;;;6.48;68.87
8573;BME280;4324;42.012;24.872;2023-03-13T06:33:45;99609.63;;;6.46;69.04
8573;BME280;4324;42.012;24.872;2023-03-13T06:36:12;99612.44;;;6.54;68.98
8573;BME280;4324;42.012;24.872;2023-03-13T06:38:40;99611.44;;;6.66;69.27
8573;BME280;4324;42.012;24.872;2023-03-13T06:41:08;99609.28;;;6.71;68.82
8573;BME280;4324;42.012;24.872;2023-03-13T06:43:35;99596.56;;;6.76;68.68
8573;BME280;4324;42.012;24.872;2023-03-13T06:46:05;99592.91;;;6.89;68.02
8573;BME280;4324;42.012;24.872;2023-03-13T06:48:32;99588.03;;;7.05;67.83
8573;BME280;4324;42.012;24.872;2023-03-13T06:50:59;99513.56;;;6.72;67.93
8573;BME280;4324;42.012;24.872;2023-03-13T06:53:26;99542.47;;;7.14;67.43
8573;BME280;4324;42.012;24.872;2023-03-13T06:55:59;99597.03;;;7.54;67.07
8573;BME280;4324;42.012;24.872;2023-03-13T06:58:26;99587.63;;;7.61;66.68
8573;BME280;4324;42.012;24.872;2023-03-13T07:00:53;99594.47;;;7.73;65.84
8573;BME280;4324;42.012;24.872;2023-03-13T07:03:20;99602.69;;;7.80;65.29
8573;BME280;4324;42.012;24.872;2023-03-13T07:05:47;99599.13;;;7.91;65.08
8573;BME280;4324;42.012;24.872;2023-03-13T07:08:17;99600.25;;;7.98;65.23
8573;BME280;4324;42.012;24.872;2023-03-13T07:10:44;99602.16;;;7.96;63.17
8573;BME280;4324;42.012;24.872;2023-03-13T07:13:14;99593.38;;;7.86;63.19
8573;BME280;4324;42.012;24.872;2023-03-13T07:15:43;99590.19;;;7.82;62.70
8573;BME280;4324;42.012;24.872;2023-03-13T07:18:11;99595.91;;;7.87;62.67
8573;BME280;4324;42.012;24.872;2023-03-13T07:20:42;99597.47;;;7.90;63.87
8573;BME280;4324;42.012;24.872;2023-03-13T07:23:09;99591.31;;;7.89;64.55
8573;BME280;4324;42.012;24.872;2023-03-13T07:25:36;99597.31;;;7.91;64.71
8573;BME280;4324;42.012;24.872;2023-03-13T07:28:06;99586.63;;;7.93;64.66
8573;BME280;4324;42.012;24.872;2023-03-13T07:30:34;99596.38;;;8.02;64.51
8573;BME280;4324;42.012;24.872;2023-03-13T07:33:01;99566.22;;;7.95;64.99
8573;BME280;4324;42.012;24.872;2023-03-13T07:35:28;99590.97;;;8.13;65.21
8573;BME280;4324;42.012;24.872;2023-03-13T07:37:55;99591.13;;;8.21;64.89
8573;BME280;4324;42.012;24.872;2023-03-13T07:40:22;99568.63;;;8.17;64.80
8573;BME280;4324;42.012;24.872;2023-03-13T07:42:49;99578.97;;;8.40;64.73
8573;BME280;4324;42.012;24.872;2023-03-13T07:45:16;99576.19;;;8.51;64.84
8573;BME280;4324;42.012;24.872;2023-03-13T07:47:44;99583.97;;;8.62;64.44
8573;BME280;4324;42.012;24.872;2023-03-13T07:50:29;99576.31;;;8.69;63.89
8573;BME280;4324;42.012;24.872;2023-03-13T07:52:56;99589.81;;;8.76;63.49
8573;BME280;4324;42.012;24.872;2023-03-13T07:55:24;99584.53;;;8.76;62.75
8573;BME280;4324;42.012;24.872;2023-03-13T07:57:51;99571.59;;;8.72;62.19
8573;BME280;4324;42.012;24.872;2023-03-13T08:00:19;99559.94;;;8.65;61.92
8573;BME280;4324;42.012;24.872;2023-03-13T08:02:47;99558.78;;;8.78;61.41
8573;BME280;4324;42.012;24.872;2023-03-13T08:05:14;99563.94;;;8.89;60.56
8573;BME280;4324;42.012;24.872;2023-03-13T08:07:43;99563.53;;;8.84;59.91
8573;BME280;4324;42.012;24.872;2023-03-13T08:10:10;99561.72;;;8.75;59.80
8573;BME280;4324;42.012;24.872;2023-03-13T08:12:37;99578.38;;;8.85;59.03
8573;BME280;4324;42.012;24.872;2023-03-13T08:15:05;99581.47;;;8.90;58.70
8573;BME280;4324;42.012;24.872;2023-03-13T08:17:33;99578.94;;;8.98;58.70
8573;BME280;4324;42.012;24.872;2023-03-13T08:20:01;99578.50;;;9.12;58.87
8573;BME280;4324;42.012;24.872;2023-03-13T08:22:28;99549.00;;;9.07;58.79
8573;BME280;4324;42.012;24.872;2023-03-13T08:24:55;99567.31;;;9.28;59.29
8573;BME280;4324;42.012;24.872;2023-03-13T08:27:23;99573.41;;;9.38;59.27
8573;BME280;4324;42.012;24.872;2023-03-13T08:29:50;99572.16;;;9.42;59.30
8573;BME280;4324;42.012;24.872;2023-03-13T08:32:17;99577.09;;;9.55;59.53
8573;BME280;4324;42.012;24.872;2023-03-13T08:34:45;99559.00;;;9.60;59.91
8573;BME280;4324;42.012;24.872;2023-03-13T08:37:16;99563.41;;;9.69;60.28
8573;BME280;4324;42.012;24.872;2023-03-13T08:39:43;99563.56;;;9.68;60.63
8573;BME280;4324;42.012;24.872;2023-03-13T08:42:11;99567.41;;;9.74;59.94
8573;BME280;4324;42.012;24.872;2023-03-13T08:44:39;99554.88;;;9.76;59.76
8573;BME280;4324;42.012;24.872;2023-03-13T08:47:07;99554.38;;;9.90;59.34
8573;BME280;4324;42.012;24.872;2023-03-13T08:49:34;99558.78;;;9.99;58.62
8573;BME280;4324;42.012;24.872;2023-03-13T08:52:02;99562.50;;;10.06;59.05
8573;BME280;4324;42.012;24.872;2023-03-13T08:54:31;99553.66;;;10.15;58.93
8573;BME280;4324;42.012;24.872;2023-03-13T08:57:01;99550.41;;;10.22;58.42
8573;BME280;4324;42.012;24.872;2023-03-13T08:59:28;99541.66;;;10.21;58.25
8573;BME280;4324;42.012;24.872;2023-03-13T09:01:55;99569.66;;;10.41;58.29
8573;BME280;4324;42.012;24.872;2023-03-13T09:04:36;99564.06;;;10.45;58.09
8573;BME280;4324;42.012;24.872;2023-03-13T09:07:03;99571.41;;;10.51;59.20
8573;BME280;4324;42.012;24.872;2023-03-13T09:09:31;99564.47;;;10.50;58.86
8573;BME280;4324;42.012;24.872;2023-03-13T09:11:59;99562.94;;;10.47;57.85
8573;BME280;4324;42.012;24.872;2023-03-13T09:14:25;99553.41;;;10.36;57.33
8573;BME280;4324;42.012;24.872;2023-03-13T09:16:52;99544.13;;;10.32;57.70
8573;BME280;4324;42.012;24.872;2023-03-13T09:19:20;99539.13;;;10.29;57.97
8573;BME280;4324;42.012;24.872;2023-03-13T09:21:47;99553.47;;;10.45;57.61
8573;BME280;4324;42.012;24.872;2023-03-13T09:24:14;99539.59;;;10.43;57.52
8573;BME280;4324;42.012;24.872;2023-03-13T09:26:43;99537.75;;;10.43;55.51
8573;BME280;4324;42.012;24.872;2023-03-13T09:29:10;99567.06;;;10.68;55.07
8573;BME280;4324;42.012;24.872;2023-03-13T09:31:37;99555.53;;;10.69;53.40
8573;BME280;4324;42.012;24.872;2023-03-13T09:34:06;99548.88;;;10.64;53.54
8573;BME280;4324;42.012;24.872;2023-03-13T09:36:33;99553.22;;;10.74;52.75
8573;BME280;4324;42.012;24.872;2023-03-13T09:39:00;99553.22;;;10.74;53.20
8573;BME280;4324;42.012;24.872;2023-03-13T09:41:33;99552.09;;;10.76;53.14
8573;BME280;4324;42.012;24.872;2023-03-13T09:44:06;99541.34;;;10.78;52.02
8573;BME280;4324;42.012;24.872;2023-03-13T09:46:40;99542.34;;;10.77;51.84
8573;BME280;4324;42.012;24.872;2023-03-13T09:49:14;99551.47;;;10.82;51.29
8573;BME280;4324;42.012;24.872;2023-03-13T09:51:48;99549.16;;;10.79;50.77
8573;BME280;4324;42.012;24.872;2023-03-13T09:54:24;99540.88;;;10.82;50.05
8573;BME280;4324;42.012;24.872;2023-03-13T09:56:56;99539.75;;;10.85;49.59
8573;BME280;4324;42.012;24.872;2023-03-13T09:59:35;99535.50;;;10.92;48.99
8573;BME280;4324;42.012;24.872;2023-03-13T10:02:04;99525.88;;;10.91;49.25
8573;BME280;4324;42.012;24.872;2023-03-13T10:04:42;99521.94;;;10.95;49.18
8573;BME280;4324;42.012;24.872;2023-03-13T10:07:13;99526.66;;;11.09;49.05
8573;BME280;4324;42.012;24.872;2023-03-13T10:09:42;99508.16;;;11.18;49.84
8573;BME280;4324;42.012;24.872;2023-03-13T10:12:43;99507.38;;;11.25;49.76
8573;BME280;4324;42.012;24.872;2023-03-13T10:18:16;99492.97;;;11.28;48.18
8573;BME280;4324;42.012;24.872;2023-03-13T10:20:47;99495.50;;;11.37;48.91
8573;BME280;4324;42.012;24.872;2023-03-13T10:23:18;99493.34;;;11.41;48.55
8573;BME280;4324;42.012;24.872;2023-03-13T10:25:47;99476.91;;;11.29;48.36
8573;BME280;4324;42.012;24.872;2023-03-13T10:28:15;99456.50;;;11.22;46.69
8573;BME280;4324;42.012;24.872;2023-03-13T10:30:51;99487.09;;;11.50;46.87
8573;BME280;4324;42.012;24.872;2023-03-13T10:33:24;99486.94;;;11.60;47.75
8573;BME280;4324;42.012;24.872;2023-03-13T10:36:08;99489.81;;;11.75;49.43
8573;BME280;4324;42.012;24.872;2023-03-13T10:38:46;99479.06;;;11.76;50.17
8573;BME280;4324;42.012;24.872;2023-03-13T10:41:25;99477.56;;;11.74;49.16
8573;BME280;4324;42.012;24.872;2023-03-13T10:43:54;99478.25;;;11.76;50.35
8573;BME280;4324;42.012;24.872;2023-03-13T10:46:27;99465.31;;;11.81;49.85
8573;BME280;4324;42.012;24.872;2023-03-13T10:48:55;99460.53;;;11.93;50.18
8573;BME280;4324;42.012;24.872;2023-03-13T10:51:24;99440.81;;;11.87;49.34
8573;BME280;4324;42.012;24.872;2023-03-13T10:54:13;99455.41;;;12.16;49.17
8573;BME280;4324;42.012;24.872;2023-03-13T10:56:41;99458.25;;;12.22;48.75
8573;BME280;4324;42.012;24.872;2023-03-13T10:59:18;99445.63;;;12.16;47.84
8573;BME280;4324;42.012;24.872;2023-03-13T11:01:49;99463.88;;;12.19;47.30
8573;BME280;4324;42.012;24.872;2023-03-13T11:04:28;99449.78;;;12.10;47.55
8573;BME280;4324;42.012;24.872;2023-03-13T11:07:02;99439.84;;;12.13;49.37
8573;BME280;4324;42.012;24.872;2023-03-13T11:09:29;99429.69;;;12.08;50.48
8573;BME280;4324;42.012;24.872;2023-03-13T11:12:02;99437.00;;;12.22;49.35
8573;BME280;4324;42.012;24.872;2023-03-13T11:14:29;99436.19;;;12.14;47.32
8573;BME280;4324;42.012;24.872;2023-03-13T11:17:05;99431.22;;;12.10;46.78
8573;BME280;4324;42.012;24.872;2023-03-13T11:20:19;99435.88;;;12.17;47.78
8573;BME280;4324;42.012;24.872;2023-03-13T11:23:13;99431.88;;;12.21;48.35
8573;BME280;4324;42.012;24.872;2023-03-13T11:26:07;99427.22;;;12.23;49.62
8573;BME280;4324;42.012;24.872;2023-03-13T11:28:45;99422.91;;;12.22;48.29
8573;BME280;4324;42.012;24.872;2023-03-13T11:31:19;99406.31;;;12.20;48.19
8573;BME280;4324;42.012;24.872;2023-03-13T11:33:54;99383.44;;;12.10;47.29
8573;BME280;4324;42.012;24.872;2023-03-13T11:36:32;99387.41;;;12.23;48.63
8573;BME280;4324;42.012;24.872;2023-03-13T11:39:15;99392.38;;;12.26;49.51
8573;BME280;4324;42.012;24.872;2023-03-13T11:41:57;99374.94;;;12.23;48.50
8573;BME280;4324;42.012;24.872;2023-03-13T11:44:30;99395.50;;;12.46;48.54
8573;BME280;4324;42.012;24.872;2023-03-13T11:47:16;99392.69;;;12.47;51.07
8573;BME280;4324;42.012;24.872;2023-03-13T11:50:02;99397.31;;;12.62;52.69
8573;BME280;4324;42.012;24.872;2023-03-13T11:52:39;99401.09;;;12.67;52.73
8573;BME280;4324;42.012;24.872;2023-03-13T11:55:29;99393.09;;;12.75;51.94
8573;BME280;4324;42.012;24.872;2023-03-13T11:58:27;99385.47;;;12.80;50.33
8573;BME280;4324;42.012;24.872;2023-03-13T12:01:17;99379.63;;;12.85;49.13
8573;BME280;4324;42.012;24.872;2023-03-13T12:03:55;99329.94;;;12.54;48.80
8573;BME280;4324;42.012;24.872;2023-03-13T12:06:29;99357.75;;;12.75;48.93
8573;BME280;4324;42.012;24.872;2023-03-13T12:09:02;99338.31;;;12.74;48.93
8573;BME280;4324;42.012;24.872;2023-03-13T12:11:33;99348.41;;;12.79;49.61
8573;BME280;4324;42.012;24.872;2023-03-13T12:14:10;99334.16;;;12.72;49.99
8573;BME280;4324;42.012;24.872;2023-03-13T12:16:42;99302.66;;;12.60;50.76
8573;BME280;4324;42.012;24.872;2023-03-13T12:19:13;99354.00;;;13.00;50.37
8573;BME280;4324;42.012;24.872;2023-03-13T12:21:46;99355.28;;;13.13;49.95
8573;BME280;4324;42.012;24.872;2023-03-13T12:24:35;99351.75;;;13.20;48.42
8573;BME280;4324;42.012;24.872;2023-03-13T12:27:10;99329.34;;;13.15;47.37
8573;BME280;4324;42.012;24.872;2023-03-13T12:29:44;99348.59;;;13.25;44.71
8573;BME280;4324;42.012;24.872;2023-03-13T12:32:18;99333.34;;;13.11;45.14
8573;BME280;4324;42.012;24.872;2023-03-13T12:34:54;99334.50;;;13.08;44.10
8573;BME280;4324;42.012;24.872;2023-03-13T12:37:30;99348.81;;;13.07;44.12
8573;BME280;4324;42.012;24.872;2023-03-13T12:40:02;99346.34;;;13.05;44.05
8573;BME280;4324;42.012;24.872;2023-03-13T12:42:41;99330.06;;;13.00;44.24
8573;BME280;4324;42.012;24.872;2023-03-13T12:45:14;99330.53;;;13.04;43.82
8573;BME280;4324;42.012;24.872;2023-03-13T12:47:59;99349.78;;;13.14;44.12
8573;BME280;4324;42.012;24.872;2023-03-13T12:50:39;99350.94;;;13.12;41.92
8573;BME280;4324;42.012;24.872;2023-03-13T12:59:19;99334.34;;;13.10;43.25
8573;BME280;4324;42.012;24.872;2023-03-13T13:01:51;99337.00;;;13.10;42.89
8573;BME280;4324;42.012;24.872;2023-03-13T13:04:21;99344.66;;;13.13;42.55
8573;BME280;4324;42.012;24.872;2023-03-13T13:07:00;99339.34;;;13.13;42.29
8573;BME280;4324;42.012;24.872;2023-03-13T13:09:32;99342.44;;;13.16;43.48
8573;BME280;4324;42.012;24.872;2023-03-13T13:12:02;99337.59;;;13.20;44.27
8573;BME280;4324;42.012;24.872;2023-03-13T13:14:57;99313.72;;;13.12;45.96
8573;BME280;4324;42.012;24.872;2023-03-13T13:20:46;99342.09;;;13.19;47.80
8573;BME280;4324;42.012;24.872;2023-03-13T13:23:30;99335.94;;;13.19;48.20
8573;BME280;4324;42.012;24.872;2023-03-13T13:32:38;99319.38;;;13.17;48.03
8573;BME280;4324;42.012;24.872;2023-03-13T13:35:20;99328.66;;;13.21;47.81
8573;BME280;4324;42.012;24.872;2023-03-13T13:37:47;99329.81;;;13.18;46.78
8573;BME280;4324;42.012;24.872;2023-03-13T13:40:24;99323.00;;;13.16;45.83
8573;BME280;4324;42.012;24.872;2023-03-13T13:42:54;99297.81;;;13.03;44.72
8573;BME280;4324;42.012;24.872;2023-03-13T13:45:27;99321.06;;;13.10;42.96
8573;BME280;4324;42.012;24.872;2023-03-13T13:48:30;99290.09;;;12.86;43.60
8573;BME280;4324;42.012;24.872;2023-03-13T13:51:25;99306.53;;;12.89;43.66
8573;BME280;4324;42.012;24.872;2023-03-13T13:53:57;99320.44;;;12.99;42.45
8573;BME280;4324;42.012;24.872;2023-03-13T13:56:36;99309.81;;;12.99;42.35